Fotini Z — SVA7621 — position and weather

sailwx.info

Track history (hours):
 
Tides and Currents Weather Stations Pressure Air Temp Water Temp Dewpoint Dewpoint Depression Visibility Wind Speed Wind Dir Waves Ship Positions

Fotini Z

Last reported at 2018-Jun-24 15:00 UTC. Time now 2018-Jun-24 15:00 UTC.
Position N 37°57' E 023°36'.

Length 38 m; draft 3.8 m.

Type: Tug. MMSI: 241500000.

Date/timePositionNaut miles runAvg speedWind from/ knotsBaromVisibWave heightAir tempDewpointWater temp
2018-Jun-24 15:00N 37°57' E 023°36'0 0.0
2018-Jun-24 14:30N 37°57' E 023°36'0 0.0
2018-Jun-24 14:00N 37°57' E 023°36'0 0.0
2018-Jun-24 13:30N 37°57' E 023°36'0 0.0
2018-Jun-24 13:00N 37°57' E 023°36'0 0.0
2018-Jun-24 12:30N 37°57' E 023°36'0 0.0
2018-Jun-24 12:00N 37°57' E 023°36'0 0.0
2018-Jun-24 11:30N 37°57' E 023°36'0 0.0
2018-Jun-24 11:00N 37°57' E 023°36'0 0.0
2018-Jun-24 10:30N 37°57' E 023°36'1 1.1
2018-Jun-24 10:00N 37°57' E 023°36'1 1.3
2018-Jun-24 09:30N 37°57' E 023°35'0 0.2
2018-Jun-24 09:00N 37°57' E 023°35'1 2.4
2018-Jun-24 08:30N 37°57' E 023°36'0 0.0
2018-Jun-24 08:00N 37°57' E 023°36'0 0.0
2018-Jun-24 07:30N 37°57' E 023°36'0 0.0
2018-Jun-24 07:00N 37°57' E 023°36'0 0.0
2018-Jun-24 06:30N 37°57' E 023°36'0 0.0
2018-Jun-24 06:00N 37°57' E 023°36'0 0.0
2018-Jun-24 05:30N 37°57' E 023°36'0 0.0
2018-Jun-24 05:00N 37°57' E 023°36'0 0.0
2018-Jun-24 04:30N 37°57' E 023°36'0 0.0
2018-Jun-24 04:00N 37°57' E 023°36'0 0.0
2018-Jun-24 03:30N 37°57' E 023°36'0 0.0
2018-Jun-24 03:00N 37°57' E 023°36'0 0.0
2018-Jun-23 07:54N 37°57' E 023°36'0 0.0
2018-Jun-23 07:31N 37°57' E 023°36'0 0.0
2018-Jun-23 07:01N 37°57' E 023°36'0 0.0
2018-Jun-23 06:30N 37°57' E 023°36'0 0.0
2018-Jun-23 06:01N 37°57' E 023°36'1 2.8
2018-Jun-23 05:31N 37°57' E 023°35'1 2.0
2018-Jun-23 05:01N 37°56' E 023°35'2 3.4
2018-Jun-23 04:31N 37°55' E 023°35'2 4.8
2018-Jun-23 04:01N 37°57' E 023°36'0 0.0
2018-Jun-23 03:31N 37°57' E 023°36'0 0.0
2018-Jun-23 03:01N 37°57' E 023°36'0 0.0
2018-Jun-22 15:08N 37°57' E 023°36'0 0.0
2018-Jun-22 15:00N 37°57' E 023°36'0 0.4
2018-Jun-22 14:30N 37°57' E 023°36'0 0.3
2018-Jun-22 14:00N 37°57' E 023°36'0 0.0
2018-Jun-22 13:30N 37°57' E 023°36'0 0.0
2018-Jun-22 13:00N 37°57' E 023°36'0 0.0
2018-Jun-22 12:30N 37°57' E 023°36'0 0.0
2018-Jun-22 12:00N 37°57' E 023°36'0 0.0
2018-Jun-22 11:30N 37°57' E 023°36'0 0.0
2018-Jun-22 11:00N 37°57' E 023°36'0 0.0
2018-Jun-22 10:30N 37°57' E 023°36'0 0.0
2018-Jun-22 10:00N 37°57' E 023°36'0 0.0
2018-Jun-22 09:30N 37°57' E 023°36'0 0.6
2018-Jun-22 09:00N 37°57' E 023°36'3 6.5
2018-Jun-22 08:30N 37°58' E 023°33'4 7.3
2018-Jun-22 08:00N 38°01' E 023°29'4 7.3
2018-Jun-22 07:30N 37°58' E 023°26'2 4.6
2018-Jun-22 07:00N 37°58' E 023°23'0 0.3
2018-Jun-22 06:30N 37°58' E 023°23'1 2.5
2018-Jun-22 06:00N 37°57' E 023°23'0 0.8
2018-Jun-22 05:30N 37°57' E 023°23'2 5.0
2018-Jun-22 05:00N 37°59' E 023°25'5 9.2
2018-Jun-22 04:31N 38°01' E 023°30'2 4.3
2018-Jun-22 04:00N 38°02' E 023°32'0 0.0
2018-Jun-22 03:30N 38°02' E 023°32'0 0.0
2018-Jun-22 03:00N 38°02' E 023°32'1 1.8
2018-Jun-22 02:30N 38°02' E 023°31'1 1.9
2018-Jun-22 02:00N 38°02' E 023°30'0 0.0
2018-Jun-22 01:30N 38°02' E 023°30'0 0.0
2018-Jun-22 01:00N 38°02' E 023°30'0 0.0
2018-Jun-22 00:30N 38°02' E 023°30'0 0.0
2018-Jun-22 00:00N 38°02' E 023°30'0 0.0
2018-Jun-21 23:30N 38°02' E 023°30'0 0.0
2018-Jun-21 23:00N 38°02' E 023°30'0 0.0
2018-Jun-21 22:30N 38°02' E 023°30'0 0.0
2018-Jun-21 22:00N 38°02' E 023°30'0 0.0
2018-Jun-21 21:30N 38°02' E 023°30'0 0.0
2018-Jun-21 21:00N 38°02' E 023°30'0 0.0
2018-Jun-21 20:30N 38°02' E 023°30'0 0.0
2018-Jun-21 20:00N 38°02' E 023°30'0 0.0
2018-Jun-21 19:30N 38°02' E 023°30'0 0.0
2018-Jun-21 19:00N 38°02' E 023°30'0 0.0
2018-Jun-21 18:30N 38°02' E 023°30'0 0.0
2018-Jun-21 17:59N 38°02' E 023°30'0 0.0
2018-Jun-21 17:30N 38°02' E 023°30'0 0.0
2018-Jun-21 17:00N 38°02' E 023°30'0 0.0
2018-Jun-21 16:30N 38°02' E 023°30'0 0.0
2018-Jun-21 16:00N 38°02' E 023°30'0 0.0
2018-Jun-21 15:30N 38°02' E 023°30'0 0.0
2018-Jun-21 15:00N 38°02' E 023°30'0 0.0
2018-Jun-21 14:30N 38°02' E 023°30'0 0.0
2018-Jun-21 14:00N 38°02' E 023°30'0 0.0
2018-Jun-21 13:30N 38°02' E 023°30'0 0.0
2018-Jun-21 13:00N 38°02' E 023°30'0 0.0
2018-Jun-21 12:30N 38°02' E 023°30'0 0.0
2018-Jun-21 12:00N 38°02' E 023°30'0 0.0
2018-Jun-21 11:30N 38°02' E 023°30'0 0.0
2018-Jun-21 11:00N 38°02' E 023°30'0 0.0
2018-Jun-21 10:30N 38°02' E 023°30'0 0.0
2018-Jun-21 10:00N 38°02' E 023°30'0 0.0
2018-Jun-21 09:30N 38°02' E 023°30'0 0.0
2018-Jun-21 09:00N 38°02' E 023°30'0 0.0
2018-Jun-21 08:30N 38°02' E 023°30'0 0.0
2018-Jun-21 08:00N 38°02' E 023°30'0 0.0
2018-Jun-21 07:30N 38°02' E 023°30'0 0.0
2018-Jun-21 07:00N 38°02' E 023°30'0 0.0
2018-Jun-21 06:30N 38°02' E 023°30'0 0.0
2018-Jun-21 06:00N 38°02' E 023°30'0 0.0
2018-Jun-21 05:30N 38°02' E 023°30'0 0.0
2018-Jun-21 05:00N 38°02' E 023°30'0 0.0
2018-Jun-21 04:30N 38°02' E 023°30'0 0.0
2018-Jun-21 04:00N 38°02' E 023°30'0 0.0
2018-Jun-21 03:30N 38°02' E 023°30'0 0.0
2018-Jun-21 03:00N 38°02' E 023°30'0 0.0
2018-Jun-21 02:30N 38°02' E 023°30'0 0.0
2018-Jun-21 02:00N 38°02' E 023°30'0 0.0
2018-Jun-21 01:30N 38°02' E 023°30'0 1.0
2018-Jun-21 01:00N 38°02' E 023°31'3 6.7
2018-Jun-21 00:30N 37°59' E 023°33'3 5.8
2018-Jun-21 00:00N 37°57' E 023°36'1 1.3
2018-Jun-20 23:30N 37°57' E 023°36'0 0.0
2018-Jun-20 12:26N 37°57' E 023°36'0 0.0
2018-Jun-20 12:00N 37°57' E 023°36'0 0.0
2018-Jun-20 11:30N 37°57' E 023°36'0 0.0
2018-Jun-20 11:00N 37°57' E 023°36'0 0.0
2018-Jun-20 10:30N 37°57' E 023°36'0 0.0
2018-Jun-20 10:00N 37°57' E 023°36'0 0.0
2018-Jun-20 09:30N 37°57' E 023°36'0 0.0
2018-Jun-20 09:00N 37°57' E 023°36'0 0.0
2018-Jun-20 08:30N 37°57' E 023°36'0 0.0
2018-Jun-20 08:00N 37°57' E 023°36'0 0.0
2018-Jun-20 07:30N 37°57' E 023°36'0 0.0
2018-Jun-20 07:00N 37°57' E 023°36'0 0.0
2018-Jun-20 06:30N 37°57' E 023°36'0 0.0
2018-Jun-20 06:00N 37°57' E 023°36'0 0.0
2018-Jun-20 05:30N 37°57' E 023°36'0 0.0
2018-Jun-20 05:00N 37°57' E 023°36'0 0.0
2018-Jun-20 04:30N 37°57' E 023°36'0 0.0
2018-Jun-20 04:00N 37°57' E 023°36'0 0.0
2018-Jun-20 03:30N 37°57' E 023°36'0 0.0
2018-Jun-20 03:00N 37°57' E 023°36'0 0.0
2018-Jun-19 10:55N 37°57' E 023°36'0 0.5
2018-Jun-19 10:31N 37°57' E 023°36'0 0.0
2018-Jun-19 10:01N 37°57' E 023°36'0 0.0
2018-Jun-19 09:31N 37°57' E 023°36'0 0.0
2018-Jun-19 09:00N 37°57' E 023°36'0 0.0
2018-Jun-19 08:30N 37°57' E 023°36'0 0.0
2018-Jun-19 08:00N 37°57' E 023°36'0 0.0
2018-Jun-19 07:30N 37°57' E 023°36'0 0.0
2018-Jun-19 07:01N 37°57' E 023°36'0 0.0
2018-Jun-19 06:31N 37°57' E 023°36'0 0.0
2018-Jun-19 06:00N 37°57' E 023°36'0 0.0
2018-Jun-19 05:30N 37°57' E 023°36'0 0.4
2018-Jun-19 05:00N 37°57' E 023°36'0 0.0
2018-Jun-19 04:31N 37°57' E 023°36'0 0.0
2018-Jun-19 04:01N 37°57' E 023°36'0 0.0
2018-Jun-19 03:30N 37°57' E 023°36'0 0.0
2018-Jun-19 03:00N 37°57' E 023°36'0 0.0
2018-Jun-18 11:15N 37°57' E 023°36'0 0.1
2018-Jun-18 11:01N 37°57' E 023°36'3 6.7
2018-Jun-18 10:29N 37°59' E 023°33'3 7.0
2018-Jun-18 10:00N 38°01' E 023°29'4 7.7
2018-Jun-18 09:30N 37°59' E 023°25'1 2.5
2018-Jun-18 09:00N 37°58' E 023°24'0 0.0
2018-Jun-18 08:30N 37°58' E 023°24'0 0.3
2018-Jun-18 08:00N 37°57' E 023°24'1 2.1
2018-Jun-18 07:30N 37°57' E 023°23'1 2.6
2018-Jun-18 07:00N 37°58' E 023°24'0 0.0
2018-Jun-18 06:30N 37°58' E 023°24'0 0.5
2018-Jun-18 06:00N 37°58' E 023°25'3 5.4
2018-Jun-18 05:30N 38°00' E 023°27'4 8.1
2018-Jun-18 05:00N 38°00' E 023°32'4 7.0
2018-Jun-18 04:30N 37°57' E 023°34'2 3.9
2018-Jun-18 04:00N 37°57' E 023°36'0 0.0
2018-Jun-18 03:30N 37°57' E 023°36'0 0.0
2018-Jun-18 03:00N 37°57' E 023°36'0 0.0
2018-Jun-16 11:07N 37°57' E 023°36'0 0.0
2018-Jun-16 11:00N 37°57' E 023°36'0 0.0
2018-Jun-16 10:30N 37°57' E 023°36'0 0.0
2018-Jun-16 10:00N 37°57' E 023°36'0 0.0
2018-Jun-16 09:30N 37°57' E 023°36'0 0.0
2018-Jun-16 09:00N 37°57' E 023°36'0 0.0
2018-Jun-16 08:30N 37°57' E 023°36'0 0.0
2018-Jun-16 08:00N 37°57' E 023°36'1 2.0
2018-Jun-16 07:30N 37°56' E 023°36'1 2.0
2018-Jun-16 07:00N 37°57' E 023°36'0 0.0
2018-Jun-16 06:30N 37°57' E 023°36'0 0.0
2018-Jun-16 06:00N 37°57' E 023°36'0 0.0
2018-Jun-16 05:30N 37°57' E 023°36'0 0.0
2018-Jun-16 05:00N 37°57' E 023°36'0 0.0
2018-Jun-15 20:28N 37°57' E 023°36'1 1.3
2018-Jun-15 20:00N 37°57' E 023°36'3 6.9
2018-Jun-15 19:30N 37°60' E 023°33'2 4.9
2018-Jun-15 19:00N 38°01' E 023°36'0 0.1
2018-Jun-15 18:30N 38°01' E 023°35'0 0.0
2018-Jun-15 18:01N 38°01' E 023°35'0 0.0
2018-Jun-15 17:30N 38°01' E 023°36'0 0.0
2018-Jun-15 17:00N 38°01' E 023°35'0 0.0
2018-Jun-15 16:30N 38°01' E 023°35'0 0.0
2018-Jun-15 16:00N 38°01' E 023°36'0 0.0
2018-Jun-15 15:30N 38°01' E 023°36'0 0.0
2018-Jun-15 15:00N 38°01' E 023°35'0 0.0
2018-Jun-15 14:30N 38°01' E 023°35'0 0.0
2018-Jun-15 14:00N 38°01' E 023°35'0 0.0
2018-Jun-15 13:30N 38°01' E 023°35'0 0.0
2018-Jun-15 13:00N 38°01' E 023°35'0 0.0
2018-Jun-15 12:30N 38°01' E 023°35'0 0.0
2018-Jun-15 11:59N 38°01' E 023°35'0 0.0
2018-Jun-15 11:30N 38°01' E 023°35'0 0.0
2018-Jun-15 11:00N 38°01' E 023°36'0 0.0
2018-Jun-15 10:30N 38°01' E 023°35'0 0.0
2018-Jun-15 10:00N 38°01' E 023°36'0 0.0
2018-Jun-15 09:30N 38°01' E 023°36'0 0.0
2018-Jun-15 09:00N 38°01' E 023°36'0 0.0
2018-Jun-15 08:30N 38°01' E 023°36'0 0.0
2018-Jun-15 08:00N 38°01' E 023°36'0 0.0
2018-Jun-15 07:30N 38°01' E 023°36'0 0.2
2018-Jun-15 07:00N 38°01' E 023°35'1 1.1
2018-Jun-15 06:30N 38°01' E 023°35'3 7.0
2018-Jun-15 06:00N 37°58' E 023°33'3 6.1
2018-Jun-15 05:30N 37°57' E 023°36'0 0.0
2018-Jun-15 05:00N 37°57' E 023°36'0 0.0
2018-Jun-15 04:31N 37°57' E 023°36'0 0.0
2018-Jun-15 04:01N 37°57' E 023°36'0 0.0
2018-Jun-15 03:30N 37°57' E 023°36'0 0.0
2018-Jun-15 03:00N 37°57' E 023°36'  
Track history (hours):
 
Tides and Currents Weather Stations Pressure Air Temp Water Temp Dewpoint Dewpoint Depression Visibility Wind Speed Wind Dir Waves Ship Positions

Fotini Z

Last reported at 2018-Jun-24 15:00 UTC. Time now 2018-Jun-24 15:00 UTC.
Position N 37°57' E 023°36'.

Length 38 m; draft 3.8 m.

Type: Tug. MMSI: 241500000.

Date/timePositionNaut miles runAvg speedWind from/ knotsBaromVisibWave heightAir tempDewpointWater temp
2018-Jun-24 15:00N 37°57' E 023°36'0 0.0
2018-Jun-24 14:30N 37°57' E 023°36'0 0.0
2018-Jun-24 14:00N 37°57' E 023°36'0 0.0
2018-Jun-24 13:30N 37°57' E 023°36'0 0.0
2018-Jun-24 13:00N 37°57' E 023°36'0 0.0
2018-Jun-24 12:30N 37°57' E 023°36'0 0.0
2018-Jun-24 12:00N 37°57' E 023°36'0 0.0
2018-Jun-24 11:30N 37°57' E 023°36'0 0.0
2018-Jun-24 11:00N 37°57' E 023°36'0 0.0
2018-Jun-24 10:30N 37°57' E 023°36'1 1.1
2018-Jun-24 10:00N 37°57' E 023°36'1 1.3
2018-Jun-24 09:30N 37°57' E 023°35'0 0.2
2018-Jun-24 09:00N 37°57' E 023°35'1 2.4
2018-Jun-24 08:30N 37°57' E 023°36'0 0.0
2018-Jun-24 08:00N 37°57' E 023°36'0 0.0
2018-Jun-24 07:30N 37°57' E 023°36'0 0.0
2018-Jun-24 07:00N 37°57' E 023°36'0 0.0
2018-Jun-24 06:30N 37°57' E 023°36'0 0.0
2018-Jun-24 06:00N 37°57' E 023°36'0 0.0
2018-Jun-24 05:30N 37°57' E 023°36'0 0.0
2018-Jun-24 05:00N 37°57' E 023°36'0 0.0
2018-Jun-24 04:30N 37°57' E 023°36'0 0.0
2018-Jun-24 04:00N 37°57' E 023°36'0 0.0
2018-Jun-24 03:30N 37°57' E 023°36'0 0.0
2018-Jun-24 03:00N 37°57' E 023°36'0 0.0
2018-Jun-23 07:54N 37°57' E 023°36'0 0.0
2018-Jun-23 07:31N 37°57' E 023°36'0 0.0
2018-Jun-23 07:01N 37°57' E 023°36'0 0.0
2018-Jun-23 06:30N 37°57' E 023°36'0 0.0
2018-Jun-23 06:01N 37°57' E 023°36'1 2.8
2018-Jun-23 05:31N 37°57' E 023°35'1 2.0
2018-Jun-23 05:01N 37°56' E 023°35'2 3.4
2018-Jun-23 04:31N 37°55' E 023°35'2 4.8
2018-Jun-23 04:01N 37°57' E 023°36'0 0.0
2018-Jun-23 03:31N 37°57' E 023°36'0 0.0
2018-Jun-23 03:01N 37°57' E 023°36'0 0.0
2018-Jun-22 15:08N 37°57' E 023°36'0 0.0
2018-Jun-22 15:00N 37°57' E 023°36'0 0.4
2018-Jun-22 14:30N 37°57' E 023°36'0 0.3
2018-Jun-22 14:00N 37°57' E 023°36'0 0.0
2018-Jun-22 13:30N 37°57' E 023°36'0 0.0
2018-Jun-22 13:00N 37°57' E 023°36'0 0.0
2018-Jun-22 12:30N 37°57' E 023°36'0 0.0
2018-Jun-22 12:00N 37°57' E 023°36'0 0.0
2018-Jun-22 11:30N 37°57' E 023°36'0 0.0
2018-Jun-22 11:00N 37°57' E 023°36'0 0.0
2018-Jun-22 10:30N 37°57' E 023°36'0 0.0
2018-Jun-22 10:00N 37°57' E 023°36'0 0.0
2018-Jun-22 09:30N 37°57' E 023°36'0 0.6
2018-Jun-22 09:00N 37°57' E 023°36'3 6.5
2018-Jun-22 08:30N 37°58' E 023°33'4 7.3
2018-Jun-22 08:00N 38°01' E 023°29'4 7.3
2018-Jun-22 07:30N 37°58' E 023°26'2 4.6
2018-Jun-22 07:00N 37°58' E 023°23'0 0.3
2018-Jun-22 06:30N 37°58' E 023°23'1 2.5
2018-Jun-22 06:00N 37°57' E 023°23'0 0.8
2018-Jun-22 05:30N 37°57' E 023°23'2 5.0
2018-Jun-22 05:00N 37°59' E 023°25'5 9.2
2018-Jun-22 04:31N 38°01' E 023°30'2 4.3
2018-Jun-22 04:00N 38°02' E 023°32'0 0.0
2018-Jun-22 03:30N 38°02' E 023°32'0 0.0
2018-Jun-22 03:00N 38°02' E 023°32'1 1.8
2018-Jun-22 02:30N 38°02' E 023°31'1 1.9
2018-Jun-22 02:00N 38°02' E 023°30'0 0.0
2018-Jun-22 01:30N 38°02' E 023°30'0 0.0
2018-Jun-22 01:00N 38°02' E 023°30'0 0.0
2018-Jun-22 00:30N 38°02' E 023°30'0 0.0
2018-Jun-22 00:00N 38°02' E 023°30'0 0.0
2018-Jun-21 23:30N 38°02' E 023°30'0 0.0
2018-Jun-21 23:00N 38°02' E 023°30'0 0.0
2018-Jun-21 22:30N 38°02' E 023°30'0 0.0
2018-Jun-21 22:00N 38°02' E 023°30'0 0.0
2018-Jun-21 21:30N 38°02' E 023°30'0 0.0
2018-Jun-21 21:00N 38°02' E 023°30'0 0.0
2018-Jun-21 20:30N 38°02' E 023°30'0 0.0
2018-Jun-21 20:00N 38°02' E 023°30'0 0.0
2018-Jun-21 19:30N 38°02' E 023°30'0 0.0
2018-Jun-21 19:00N 38°02' E 023°30'0 0.0
2018-Jun-21 18:30N 38°02' E 023°30'0 0.0
2018-Jun-21 17:59N 38°02' E 023°30'0 0.0
2018-Jun-21 17:30N 38°02' E 023°30'0 0.0
2018-Jun-21 17:00N 38°02' E 023°30'0 0.0
2018-Jun-21 16:30N 38°02' E 023°30'0 0.0
2018-Jun-21 16:00N 38°02' E 023°30'0 0.0
2018-Jun-21 15:30N 38°02' E 023°30'0 0.0
2018-Jun-21 15:00N 38°02' E 023°30'0 0.0
2018-Jun-21 14:30N 38°02' E 023°30'0 0.0
2018-Jun-21 14:00N 38°02' E 023°30'0 0.0
2018-Jun-21 13:30N 38°02' E 023°30'0 0.0
2018-Jun-21 13:00N 38°02' E 023°30'0 0.0
2018-Jun-21 12:30N 38°02' E 023°30'0 0.0
2018-Jun-21 12:00N 38°02' E 023°30'0 0.0
2018-Jun-21 11:30N 38°02' E 023°30'0 0.0
2018-Jun-21 11:00N 38°02' E 023°30'0 0.0
2018-Jun-21 10:30N 38°02' E 023°30'0 0.0
2018-Jun-21 10:00N 38°02' E 023°30'0 0.0
2018-Jun-21 09:30N 38°02' E 023°30'0 0.0
2018-Jun-21 09:00N 38°02' E 023°30'0 0.0
2018-Jun-21 08:30N 38°02' E 023°30'0 0.0
2018-Jun-21 08:00N 38°02' E 023°30'0 0.0
2018-Jun-21 07:30N 38°02' E 023°30'0 0.0
2018-Jun-21 07:00N 38°02' E 023°30'0 0.0
2018-Jun-21 06:30N 38°02' E 023°30'0 0.0
2018-Jun-21 06:00N 38°02' E 023°30'0 0.0
2018-Jun-21 05:30N 38°02' E 023°30'0 0.0
2018-Jun-21 05:00N 38°02' E 023°30'0 0.0
2018-Jun-21 04:30N 38°02' E 023°30'0 0.0
2018-Jun-21 04:00N 38°02' E 023°30'0 0.0
2018-Jun-21 03:30N 38°02' E 023°30'0 0.0
2018-Jun-21 03:00N 38°02' E 023°30'0 0.0
2018-Jun-21 02:30N 38°02' E 023°30'0 0.0
2018-Jun-21 02:00N 38°02' E 023°30'0 0.0
2018-Jun-21 01:30N 38°02' E 023°30'0 1.0
2018-Jun-21 01:00N 38°02' E 023°31'3 6.7
2018-Jun-21 00:30N 37°59' E 023°33'3 5.8
2018-Jun-21 00:00N 37°57' E 023°36'1 1.3
2018-Jun-20 23:30N 37°57' E 023°36'0 0.0
2018-Jun-20 12:26N 37°57' E 023°36'0 0.0
2018-Jun-20 12:00N 37°57' E 023°36'0 0.0
2018-Jun-20 11:30N 37°57' E 023°36'0 0.0
2018-Jun-20 11:00N 37°57' E 023°36'0 0.0
2018-Jun-20 10:30N 37°57' E 023°36'0 0.0
2018-Jun-20 10:00N 37°57' E 023°36'0 0.0
2018-Jun-20 09:30N 37°57' E 023°36'0 0.0
2018-Jun-20 09:00N 37°57' E 023°36'0 0.0
2018-Jun-20 08:30N 37°57' E 023°36'0 0.0
2018-Jun-20 08:00N 37°57' E 023°36'0 0.0
2018-Jun-20 07:30N 37°57' E 023°36'0 0.0
2018-Jun-20 07:00N 37°57' E 023°36'0 0.0
2018-Jun-20 06:30N 37°57' E 023°36'0 0.0
2018-Jun-20 06:00N 37°57' E 023°36'0 0.0
2018-Jun-20 05:30N 37°57' E 023°36'0 0.0
2018-Jun-20 05:00N 37°57' E 023°36'0 0.0
2018-Jun-20 04:30N 37°57' E 023°36'0 0.0
2018-Jun-20 04:00N 37°57' E 023°36'0 0.0
2018-Jun-20 03:30N 37°57' E 023°36'0 0.0
2018-Jun-20 03:00N 37°57' E 023°36'0 0.0
2018-Jun-19 10:55N 37°57' E 023°36'0 0.5
2018-Jun-19 10:31N 37°57' E 023°36'0 0.0
2018-Jun-19 10:01N 37°57' E 023°36'0 0.0
2018-Jun-19 09:31N 37°57' E 023°36'0 0.0
2018-Jun-19 09:00N 37°57' E 023°36'0 0.0
2018-Jun-19 08:30N 37°57' E 023°36'0 0.0
2018-Jun-19 08:00N 37°57' E 023°36'0 0.0
2018-Jun-19 07:30N 37°57' E 023°36'0 0.0
2018-Jun-19 07:01N 37°57' E 023°36'0 0.0
2018-Jun-19 06:31N 37°57' E 023°36'0 0.0
2018-Jun-19 06:00N 37°57' E 023°36'0 0.0
2018-Jun-19 05:30N 37°57' E 023°36'0 0.4
2018-Jun-19 05:00N 37°57' E 023°36'0 0.0
2018-Jun-19 04:31N 37°57' E 023°36'0 0.0
2018-Jun-19 04:01N 37°57' E 023°36'0 0.0
2018-Jun-19 03:30N 37°57' E 023°36'0 0.0
2018-Jun-19 03:00N 37°57' E 023°36'0 0.0
2018-Jun-18 11:15N 37°57' E 023°36'0 0.1
2018-Jun-18 11:01N 37°57' E 023°36'3 6.7
2018-Jun-18 10:29N 37°59' E 023°33'3 7.0
2018-Jun-18 10:00N 38°01' E 023°29'4 7.7
2018-Jun-18 09:30N 37°59' E 023°25'1 2.5
2018-Jun-18 09:00N 37°58' E 023°24'0 0.0
2018-Jun-18 08:30N 37°58' E 023°24'0 0.3
2018-Jun-18 08:00N 37°57' E 023°24'1 2.1
2018-Jun-18 07:30N 37°57' E 023°23'1 2.6
2018-Jun-18 07:00N 37°58' E 023°24'0 0.0
2018-Jun-18 06:30N 37°58' E 023°24'0 0.5
2018-Jun-18 06:00N 37°58' E 023°25'3 5.4
2018-Jun-18 05:30N 38°00' E 023°27'4 8.1
2018-Jun-18 05:00N 38°00' E 023°32'4 7.0
2018-Jun-18 04:30N 37°57' E 023°34'2 3.9
2018-Jun-18 04:00N 37°57' E 023°36'0 0.0
2018-Jun-18 03:30N 37°57' E 023°36'0 0.0
2018-Jun-18 03:00N 37°57' E 023°36'0 0.0
2018-Jun-16 11:07N 37°57' E 023°36'0 0.0
2018-Jun-16 11:00N 37°57' E 023°36'0 0.0
2018-Jun-16 10:30N 37°57' E 023°36'0 0.0
2018-Jun-16 10:00N 37°57' E 023°36'0 0.0
2018-Jun-16 09:30N 37°57' E 023°36'0 0.0
2018-Jun-16 09:00N 37°57' E 023°36'0 0.0
2018-Jun-16 08:30N 37°57' E 023°36'0 0.0
2018-Jun-16 08:00N 37°57' E 023°36'1 2.0
2018-Jun-16 07:30N 37°56' E 023°36'1 2.0
2018-Jun-16 07:00N 37°57' E 023°36'0 0.0
2018-Jun-16 06:30N 37°57' E 023°36'0 0.0
2018-Jun-16 06:00N 37°57' E 023°36'0 0.0
2018-Jun-16 05:30N 37°57' E 023°36'0 0.0
2018-Jun-16 05:00N 37°57' E 023°36'0 0.0
2018-Jun-15 20:28N 37°57' E 023°36'1 1.3
2018-Jun-15 20:00N 37°57' E 023°36'3 6.9
2018-Jun-15 19:30N 37°60' E 023°33'2 4.9
2018-Jun-15 19:00N 38°01' E 023°36'0 0.1
2018-Jun-15 18:30N 38°01' E 023°35'0 0.0
2018-Jun-15 18:01N 38°01' E 023°35'0 0.0
2018-Jun-15 17:30N 38°01' E 023°36'0 0.0
2018-Jun-15 17:00N 38°01' E 023°35'0 0.0
2018-Jun-15 16:30N 38°01' E 023°35'0 0.0
2018-Jun-15 16:00N 38°01' E 023°36'0 0.0
2018-Jun-15 15:30N 38°01' E 023°36'0 0.0
2018-Jun-15 15:00N 38°01' E 023°35'0 0.0
2018-Jun-15 14:30N 38°01' E 023°35'0 0.0
2018-Jun-15 14:00N 38°01' E 023°35'0 0.0
2018-Jun-15 13:30N 38°01' E 023°35'0 0.0
2018-Jun-15 13:00N 38°01' E 023°35'0 0.0
2018-Jun-15 12:30N 38°01' E 023°35'0 0.0
2018-Jun-15 11:59N 38°01' E 023°35'0 0.0
2018-Jun-15 11:30N 38°01' E 023°35'0 0.0
2018-Jun-15 11:00N 38°01' E 023°36'0 0.0
2018-Jun-15 10:30N 38°01' E 023°35'0 0.0
2018-Jun-15 10:00N 38°01' E 023°36'0 0.0
2018-Jun-15 09:30N 38°01' E 023°36'0 0.0
2018-Jun-15 09:00N 38°01' E 023°36'0 0.0
2018-Jun-15 08:30N 38°01' E 023°36'0 0.0
2018-Jun-15 08:00N 38°01' E 023°36'0 0.0
2018-Jun-15 07:30N 38°01' E 023°36'0 0.2
2018-Jun-15 07:00N 38°01' E 023°35'1 1.1
2018-Jun-15 06:30N 38°01' E 023°35'3 7.0
2018-Jun-15 06:00N 37°58' E 023°33'3 6.1
2018-Jun-15 05:30N 37°57' E 023°36'0 0.0
2018-Jun-15 05:00N 37°57' E 023°36'0 0.0
2018-Jun-15 04:31N 37°57' E 023°36'0 0.0
2018-Jun-15 04:01N 37°57' E 023°36'0 0.0
2018-Jun-15 03:30N 37°57' E 023°36'0 0.0
2018-Jun-15 03:00N 37°57' E 023°36'  

Dump ship's entire track history